Time;durP1;ratioP1;P1;durP2;ratioP2;P2;SDS_P1;SDS_P2;PMS_P1;PMS_P2;Temp;Humidity;BMP_temperature;BMP_pressure;BME280_temperature;BME280_humidity;BME280_pressure;Samples;Min_cycle;Max_cycle;Signal;HPM_P1;HPM_P2
2022/07/14 00:01:10;;;;;;;8.40;1.88;;;;;;;;;;6151074;23;20022;-62
2022/07/14 00:03:37;;;;;;;10.85;1.60;;;;;;;;;;6148956;23;20338;-68
2022/07/14 00:06:05;;;;;;;5.13;1.50;;;;;;;;;;6150555;23;20029;-60
2022/07/14 00:08:32;;;;;;;8.00;1.90;;;;;;;;;;6149839;23;20100;-59
2022/07/14 00:10:59;;;;;;;12.00;1.80;;;;;;;;;;6149702;23;20076;-59
2022/07/14 00:13:27;;;;;;;5.18;1.60;;;;;;;;;;6150319;23;20084;-59
2022/07/14 00:15:54;;;;;;;8.68;1.55;;;;;;;;;;6149793;23;20021;-60
2022/07/14 00:18:21;;;;;;;13.68;1.95;;;;;;;;;;6149590;23;20025;-60
2022/07/14 00:20:49;;;;;;;8.68;1.77;;;;;;;;;;6148035;23;20017;-57
2022/07/14 00:23:16;;;;;;;13.45;2.17;;;;;;;;;;6150709;23;20514;-61
2022/07/14 00:25:44;;;;;;;13.82;2.00;;;;;;;;;;6148881;23;20021;-45
2022/07/14 00:28:11;;;;;;;;;;;;;;;;;;6150758;23;20040;-47
2022/07/14 00:30:39;;;;;;;8.18;1.67;;;;;;;;;;6150114;23;20282;-45
2022/07/14 00:33:06;;;;;;;14.90;2.50;;;;;;;;;;6149341;23;20073;-44
2022/07/14 00:35:33;;;;;;;9.18;1.85;;;;;;;;;;6149891;23;20533;-45
2022/07/14 00:38:03;;;;;;;8.07;2.13;;;;;;;;;;6149645;23;20359;-48
2022/07/14 00:40:31;;;;;;;12.30;2.55;;;;;;;;;;6150311;23;20033;-60
2022/07/14 00:42:59;;;;;;;14.65;2.00;;;;;;;;;;6150912;23;20029;-60
2022/07/14 00:45:29;;;;;;;8.38;2.42;;;;;;;;;;6149609;23;20029;-50
2022/07/14 00:47:57;;;;;;;11.07;2.00;;;;;;;;;;6149359;23;20025;-48
2022/07/14 00:50:25;;;;;;;16.15;2.03;;;;;;;;;;6149026;23;20052;-51
2022/07/14 00:52:53;;;;;;;9.77;1.98;;;;;;;;;;6149234;23;20029;-50
2022/07/14 00:55:20;;;;;;;9.85;1.88;;;;;;;;;;6149312;23;20546;-49
2022/07/14 00:57:48;;;;;;;;;;;;;;;;;;6149111;23;20081;-49
2022/07/14 01:00:16;;;;;;;11.57;2.53;;;;;;;;;;6150149;23;19924;-55
2022/07/14 01:02:45;;;;;;;9.93;2.08;;;;;;;;;;6149814;23;20029;-46
2022/07/14 01:05:13;;;;;;;11.98;1.98;;;;;;;;;;6148653;23;20022;-49
2022/07/14 01:07:41;;;;;;;12.80;2.50;;;;;;;;;;6149164;23;20049;-48
2022/07/14 01:10:09;;;;;;;16.20;2.35;;;;;;;;;;6148735;23;20026;-47
2022/07/14 01:12:37;;;;;;;10.05;2.35;;;;;;;;;;6147918;23;20048;-47
2022/07/14 01:15:05;;;;;;;11.95;2.00;;;;;;;;;;6149358;23;20025;-49
2022/07/14 01:17:32;;;;;;;12.60;2.35;;;;;;;;;;6148977;23;20057;-46
2022/07/14 01:20:00;;;;;;;11.40;2.92;;;;;;;;;;6149059;23;20032;-54
2022/07/14 01:22:27;;;;;;;9.63;2.20;;;;;;;;;;6149701;23;20084;-56
2022/07/14 01:24:54;;;;;;;10.35;2.22;;;;;;;;;;6148560;23;20462;-58
2022/07/14 01:27:21;;;;;;;14.75;2.55;;;;;;;;;;6150081;23;20092;-55
2022/07/14 01:29:50;;;;;;;13.40;2.30;;;;;;;;;;6149827;23;20021;-57
2022/07/14 01:32:18;;;;;;;13.80;2.05;;;;;;;;;;6149917;23;20025;-56
2022/07/14 01:34:45;;;;;;;7.18;2.15;;;;;;;;;;6148932;23;20021;-54
2022/07/14 01:37:13;;;;;;;12.77;2.45;;;;;;;;;;6147724;23;20025;-60
2022/07/14 01:39:41;;;;;;;17.60;2.90;;;;;;;;;;6149455;23;20025;-62
2022/07/14 01:42:09;;;;;;;16.23;2.17;;;;;;;;;;6150611;23;20591;-49
2022/07/14 01:44:36;;;;;;;16.83;2.65;;;;;;;;;;6148560;23;20049;-48
2022/07/14 01:47:04;;;;;;;14.48;3.05;;;;;;;;;;6148888;23;20463;-45
2022/07/14 01:49:32;;;;;;;10.98;2.53;;;;;;;;;;6149400;23;20104;-46
2022/07/14 01:51:59;;;;;;;20.30;2.80;;;;;;;;;;6149816;23;20026;-46
2022/07/14 01:54:26;;;;;;;15.15;2.58;;;;;;;;;;6149103;23;20026;-47
2022/07/14 01:56:54;;;;;;;8.38;2.65;;;;;;;;;;6148869;23;20053;-59
2022/07/14 01:59:21;;;;;;;12.50;2.80;;;;;;;;;;6150151;23;20200;-59
2022/07/14 02:01:48;;;;;;;11.95;2.17;;;;;;;;;;6149038;23;20025;-47
2022/07/14 02:04:17;;;;;;;18.85;3.30;;;;;;;;;;6149812;23;20017;-45
2022/07/14 02:06:46;;;;;;;20.10;3.05;;;;;;;;;;6147678;23;20406;-45
2022/07/14 02:09:13;;;;;;;17.65;3.17;;;;;;;;;;6148748;23;20072;-45
2022/07/14 02:14:27;;;;;;;18.70;2.92;;;;;;;;;;6149351;23;20049;-46
2022/07/14 02:16:54;;;;;;;;;;;;;;;;;;6149703;23;20025;-60
2022/07/14 02:19:23;;;;;;;17.02;2.90;;;;;;;;;;6149164;23;20177;-62
2022/07/14 02:21:52;;;;;;;14.43;2.70;;;;;;;;;;6147557;23;20021;-61
2022/07/14 02:24:20;;;;;;;15.68;2.95;;;;;;;;;;6148878;23;20354;-62
2022/07/14 02:26:50;;;;;;;20.45;2.90;;;;;;;;;;6149213;23;20464;-62
2022/07/14 02:29:18;;;;;;;15.63;3.15;;;;;;;;;;6150796;23;20029;-61
2022/07/14 02:31:46;;;;;;;13.48;2.90;;;;;;;;;;6151381;23;20021;-62
2022/07/14 02:34:13;;;;;;;17.38;2.70;;;;;;;;;;6147246;23;20033;-60
2022/07/14 02:36:41;;;;;;;12.93;2.42;;;;;;;;;;6150507;23;20441;-44
2022/07/14 02:39:08;;;;;;;19.35;3.00;;;;;;;;;;6150858;23;20072;-60
2022/07/14 02:41:36;;;;;;;15.98;2.85;;;;;;;;;;6151524;23;20025;-60
2022/07/14 02:44:03;;;;;;;12.93;2.78;;;;;;;;;;6150990;23;20017;-60
2022/07/14 02:46:30;;;;;;;17.63;2.90;;;;;;;;;;6148813;23;20475;-59
2022/07/14 02:48:58;;;;;;;13.82;3.25;;;;;;;;;;6151087;23;20060;-59
2022/07/14 02:51:25;;;;;;;26.27;3.42;;;;;;;;;;6152104;23;20076;-60
2022/07/14 02:53:52;;;;;;;15.15;2.75;;;;;;;;;;6151217;23;20040;-60
2022/07/14 02:56:20;;;;;;;14.98;2.40;;;;;;;;;;6150876;23;20017;-56
2022/07/14 02:58:47;;;;;;;15.93;3.45;;;;;;;;;;6151133;23;20080;-51
2022/07/14 03:01:14;;;;;;;16.83;2.70;;;;;;;;;;6150965;23;20021;-47
2022/07/14 03:03:42;;;;;;;14.02;2.90;;;;;;;;;;6150711;23;20037;-48
2022/07/14 03:06:13;;;;;;;17.50;2.72;;;;;;;;;;6150940;23;20017;-48
2022/07/14 03:08:41;;;;;;;18.45;3.08;;;;;;;;;;6150684;23;20025;-51
2022/07/14 03:11:08;;;;;;;23.80;3.50;;;;;;;;;;6150526;23;20756;-47
2022/07/14 03:13:36;;;;;;;14.93;2.92;;;;;;;;;;6150955;23;20362;-62
2022/07/14 03:16:08;;;;;;;17.52;3.13;;;;;;;;;;6150006;23;20028;-62
2022/07/14 03:18:39;;;;;;;18.77;3.40;;;;;;;;;;6150171;23;20025;-62
2022/07/14 03:21:08;;;;;;;17.20;3.17;;;;;;;;;;6150649;23;20025;-62
2022/07/14 03:23:36;;;;;;;12.98;2.67;;;;;;;;;;6150071;23;20021;-61
2022/07/14 03:26:04;;;;;;;17.15;2.83;;;;;;;;;;6149986;23;20026;-62
2022/07/14 03:28:31;;;;;;;14.90;2.85;;;;;;;;;;6150026;23;20021;-62
2022/07/14 03:30:59;;;;;;;15.73;2.72;;;;;;;;;;6150812;23;20026;-62
2022/07/14 03:33:27;;;;;;;21.58;3.08;;;;;;;;;;6150639;23;20025;-68
2022/07/14 03:35:54;;;;;;;19.38;2.72;;;;;;;;;;6150355;23;20026;-62
2022/07/14 03:38:22;;;;;;;13.48;2.70;;;;;;;;;;6151036;23;20025;-62
2022/07/14 03:41:03;;;;;;;16.60;3.00;;;;;;;;;;6150962;23;20057;-62
2022/07/14 03:43:32;;;;;;;15.93;3.00;;;;;;;;;;6150867;23;20026;-61
2022/07/14 03:45:59;;;;;;;;;;;;;;;;;;6150090;23;20076;-62
2022/07/14 03:48:27;;;;;;;12.55;2.80;;;;;;;;;;6151220;23;19924;-62
2022/07/14 03:50:54;;;;;;;14.23;2.53;;;;;;;;;;6149951;23;20049;-60
2022/07/14 03:53:22;;;;;;;13.52;3.10;;;;;;;;;;6151278;23;20053;-47
2022/07/14 03:55:49;;;;;;;19.60;3.22;;;;;;;;;;6149828;23;20080;-55
2022/07/14 03:58:19;;;;;;;13.38;2.38;;;;;;;;;;6148373;23;20035;-54
2022/07/14 04:00:47;;;;;;;22.50;3.30;;;;;;;;;;6149963;23;20029;-57
2022/07/14 04:03:14;;;;;;;;;;;;;;;;;;6148346;23;20033;-55
2022/07/14 04:05:42;;;;;;;13.77;2.50;;;;;;;;;;6150236;23;19916;-57
2022/07/14 04:08:09;;;;;;;19.33;2.80;;;;;;;;;;6150952;23;20025;-57
2022/07/14 04:10:37;;;;;;;17.65;3.08;;;;;;;;;;6150423;23;20033;-49
2022/07/14 04:13:04;;;;;;;12.98;2.67;;;;;;;;;;6149999;23;20593;-60
2022/07/14 04:15:32;;;;;;;14.82;3.08;;;;;;;;;;6150097;23;20026;-60
2022/07/14 04:17:59;;;;;;;;;;;;;;;;;;6150423;23;20076;-60
2022/07/14 04:20:27;;;;;;;16.88;2.92;;;;;;;;;;6149117;23;20337;-60
2022/07/14 04:22:54;;;;;;;13.75;2.63;;;;;;;;;;6149726;23;20538;-59
2022/07/14 04:25:21;;;;;;;12.00;2.05;;;;;;;;;;6149871;23;20029;-60
2022/07/14 04:27:48;;;;;;;16.30;2.50;;;;;;;;;;6150061;23;20025;-59
2022/07/14 04:30:16;;;;;;;13.80;3.00;;;;;;;;;;6150196;23;20052;-59
2022/07/14 04:32:43;;;;;;;15.43;2.85;;;;;;;;;;6150299;23;20568;-47
2022/07/14 04:35:10;;;;;;;10.63;2.38;;;;;;;;;;6148705;23;20493;-53
2022/07/14 04:37:38;;;;;;;11.15;2.67;;;;;;;;;;6150016;23;20050;-51
2022/07/14 04:40:06;;;;;;;13.35;2.33;;;;;;;;;;6149791;23;20030;-50
2022/07/14 04:42:33;;;;;;;11.90;2.65;;;;;;;;;;6150163;23;20037;-47
2022/07/14 04:45:02;;;;;;;17.35;2.85;;;;;;;;;;6147920;23;20025;-47
2022/07/14 04:47:29;;;;;;;17.23;2.47;;;;;;;;;;6150346;23;20056;-57
2022/07/14 04:52:47;;;;;;;10.80;2.83;;;;;;;;;;6150144;23;20525;-62
2022/07/14 04:55:14;;;;;;;17.75;2.33;;;;;;;;;;6149644;23;20082;-62
2022/07/14 04:57:42;;;;;;;;;;;;;;;;;;6150157;23;20084;-63
2022/07/14 05:00:12;;;;;;;14.30;2.63;;;;;;;;;;6149402;23;20250;-63
2022/07/14 05:02:40;;;;;;;12.25;2.20;;;;;;;;;;6148680;23;20025;-62
2022/07/14 05:05:07;;;;;;;13.75;2.70;;;;;;;;;;6150113;23;20026;-62
2022/07/14 05:07:35;;;;;;;19.85;2.88;;;;;;;;;;6149901;23;20742;-58
2022/07/14 05:10:04;;;;;;;13.25;3.08;;;;;;;;;;6148417;23;20502;-59
2022/07/14 05:12:31;;;;;;;15.63;2.50;;;;;;;;;;6149576;23;20482;-59
2022/07/14 05:14:58;;;;;;;15.93;3.53;;;;;;;;;;6150185;23;20048;-60
2022/07/14 05:17:26;;;;;;;10.23;2.45;;;;;;;;;;6149847;23;20040;-59
2022/07/14 05:19:53;;;;;;;10.48;2.28;;;;;;;;;;6149992;23;20035;-59
2022/07/14 05:22:21;;;;;;;18.92;2.85;;;;;;;;;;6150013;23;20032;-60
2022/07/14 05:24:48;;;;;;;11.45;2.25;;;;;;;;;;6149435;23;20053;-60
2022/07/14 05:27:15;;;;;;;20.35;2.45;;;;;;;;;;6150312;23;20052;-59
2022/07/14 05:29:43;;;;;;;13.85;2.58;;;;;;;;;;6150021;23;20080;-58
2022/07/14 05:32:10;;;;;;;17.13;2.55;;;;;;;;;;6148932;23;20359;-59
2022/07/14 05:34:42;;;;;;;13.05;2.53;;;;;;;;;;6149512;23;20017;-58
2022/07/14 05:37:10;;;;;;;9.30;2.22;;;;;;;;;;6149978;23;20358;-58
2022/07/14 05:39:38;;;;;;;12.77;2.70;;;;;;;;;;6149620;23;20022;-57
2022/07/14 05:42:05;;;;;;;11.23;2.20;;;;;;;;;;6147633;23;20286;-58
2022/07/14 05:44:34;;;;;;;10.05;2.17;;;;;;;;;;6148975;23;20056;-59
2022/07/14 05:47:02;;;;;;;8.70;2.05;;;;;;;;;;6149001;23;20081;-57
2022/07/14 05:49:29;;;;;;;13.50;2.35;;;;;;;;;;6148805;23;20101;-60
2022/07/14 05:51:56;;;;;;;13.23;2.97;;;;;;;;;;6149831;23;20026;-60
2022/07/14 05:54:24;;;;;;;12.40;1.95;;;;;;;;;;6147654;23;20104;-60
2022/07/14 05:56:51;;;;;;;16.25;2.95;;;;;;;;;;6150614;23;20021;-60
2022/07/14 05:59:19;;;;;;;12.75;2.33;;;;;;;;;;6150763;23;20040;-60
2022/07/14 06:02:06;;;;;;;8.32;2.13;;;;;;;;;;6152758;23;20053;-59
2022/07/14 06:04:34;;;;;;;;;;;;;;;;;;6152170;23;20474;-68
2022/07/14 06:07:01;;;;;;;10.43;2.35;;;;;;;;;;6151759;23;19920;-60
2022/07/14 06:09:28;;;;;;;10.30;1.88;;;;;;;;;;6152447;23;20044;-57
2022/07/14 06:11:56;;;;;;;11.45;2.40;;;;;;;;;;6150863;23;20737;-58
2022/07/14 06:14:23;;;;;;;10.65;2.15;;;;;;;;;;6152527;23;20102;-59
2022/07/14 06:16:50;;;;;;;10.05;1.85;;;;;;;;;;6150478;23;20025;-58
2022/07/14 06:19:18;;;;;;;12.60;2.22;;;;;;;;;;6151655;23;20403;-56
2022/07/14 06:21:45;;;;;;;7.50;1.98;;;;;;;;;;6151824;23;20042;-58
2022/07/14 06:24:13;;;;;;;10.93;1.83;;;;;;;;;;6152397;23;20029;-59
2022/07/14 06:26:40;;;;;;;7.22;1.55;;;;;;;;;;6151567;23;20104;-68
2022/07/14 06:29:08;;;;;;;;;;;;;;;;;;6152481;23;20482;-68
2022/07/14 06:31:36;;;;;;;9.65;1.70;;;;;;;;;;6151696;23;19924;-68
2022/07/14 06:34:04;;;;;;;13.77;2.38;;;;;;;;;;6151313;23;20089;-68
2022/07/14 06:36:31;;;;;;;10.80;1.77;;;;;;;;;;6151044;23;20026;-68
2022/07/14 06:38:59;;;;;;;10.10;1.60;;;;;;;;;;6147520;23;20410;-68
2022/07/14 06:41:26;;;;;;;7.47;1.70;;;;;;;;;;6151361;23;20025;-67
2022/07/14 06:43:54;;;;;;;9.80;2.03;;;;;;;;;;6150835;23;20037;-59
2022/07/14 06:46:21;;;;;;;7.57;1.90;;;;;;;;;;6150919;23;20468;-59
2022/07/14 06:48:48;;;;;;;7.15;1.77;;;;;;;;;;6151000;23;20029;-59
2022/07/14 06:51:16;;;;;;;6.53;1.67;;;;;;;;;;6150619;23;20470;-59
2022/07/14 06:53:43;;;;;;;9.93;1.88;;;;;;;;;;6150778;23;20021;-59
2022/07/14 06:56:10;;;;;;;9.75;1.92;;;;;;;;;;6152338;23;20025;-59
2022/07/14 06:58:38;;;;;;;10.02;1.98;;;;;;;;;;6148054;23;20021;-59
2022/07/14 07:01:05;;;;;;;10.15;1.75;;;;;;;;;;6151527;23;20052;-60
2022/07/14 07:03:33;;;;;;;9.85;2.00;;;;;;;;;;6150849;23;20029;-59
2022/07/14 07:08:48;;;;;;;9.50;2.08;;;;;;;;;;6151214;23;20029;-60
2022/07/14 07:11:15;;;;;;;9.75;1.75;;;;;;;;;;6149838;23;20025;-60
2022/07/14 07:13:43;;;;;;;12.23;1.67;;;;;;;;;;6150402;23;20247;-60
2022/07/14 07:16:10;;;;;;;11.13;2.20;;;;;;;;;;6151106;23;20025;-60
2022/07/14 07:18:38;;;;;;;6.28;1.48;;;;;;;;;;6149463;23;20032;-59
2022/07/14 07:21:06;;;;;;;7.10;1.65;;;;;;;;;;6151401;23;20044;-51
2022/07/14 07:23:34;;;;;;;7.22;1.50;;;;;;;;;;6150514;23;20590;-59
2022/07/14 07:26:01;;;;;;;;;;;;;;;;;;6151891;23;20072;-59
2022/07/14 07:28:29;;;;;;;12.35;2.00;;;;;;;;;;6150824;23;20376;-59
2022/07/14 07:30:56;;;;;;;9.43;1.42;;;;;;;;;;6149750;23;20538;-59
2022/07/14 07:33:24;;;;;;;8.82;1.95;;;;;;;;;;6152036;23;20028;-59
2022/07/14 07:35:51;;;;;;;4.55;1.33;;;;;;;;;;6150582;23;20026;-59
2022/07/14 07:38:19;;;;;;;10.85;2.17;;;;;;;;;;6149908;23;20025;-58
2022/07/14 07:40:49;;;;;;;5.90;1.77;;;;;;;;;;6148866;23;20526;-46
2022/07/14 07:43:17;;;;;;;5.88;1.30;;;;;;;;;;6150719;23;20029;-58
2022/07/14 07:45:44;;;;;;;14.15;1.95;;;;;;;;;;6148916;23;20025;-59
2022/07/14 07:48:12;;;;;;;;;;;;;;;;;;6150529;23;20033;-59
2022/07/14 07:50:42;;;;;;;4.20;1.35;;;;;;;;;;6148920;23;19964;-59
2022/07/14 07:53:10;;;;;;;8.02;1.80;;;;;;;;;;6149780;23;20033;-58
2022/07/14 07:55:38;;;;;;;10.80;2.13;;;;;;;;;;6150033;23;20021;-59
2022/07/14 07:58:07;;;;;;;8.88;1.40;;;;;;;;;;6151101;23;20029;-46
2022/07/14 08:00:34;;;;;;;6.43;1.50;;;;;;;;;;6150635;23;20032;-59
2022/07/14 08:03:02;;;;;;;5.90;1.50;;;;;;;;;;6151045;23;20036;-50
2022/07/14 08:05:30;;;;;;;7.78;1.10;;;;;;;;;;6151153;23;20017;-45
2022/07/14 08:08:18;;;;;;;10.90;1.40;;;;;;;;;;6149798;23;20541;-48
2022/07/14 08:10:45;;;;;;;8.20;1.77;;;;;;;;;;6151109;23;20049;-48
2022/07/14 08:13:12;;;;;;;7.60;1.48;;;;;;;;;;6149995;23;20025;-46
2022/07/14 08:15:40;;;;;;;6.40;1.70;;;;;;;;;;6149556;23;20076;-45
2022/07/14 08:18:07;;;;;;;;;;;;;;;;;;6151802;23;20017;-67
2022/07/14 08:20:34;;;;;;;7.25;1.38;;;;;;;;;;6149367;23;19927;-47
2022/07/14 08:23:04;;;;;;;3.38;1.00;;;;;;;;;;6149367;23;20037;-45
2022/07/14 08:25:33;;;;;;;4.32;1.30;;;;;;;;;;6150183;23;20414;-48
2022/07/14 08:28:00;;;;;;;10.93;1.85;;;;;;;;;;6151011;23;20029;-46
2022/07/14 08:30:27;;;;;;;7.35;1.40;;;;;;;;;;6150275;23;20025;-45
2022/07/14 08:32:55;;;;;;;7.47;1.33;;;;;;;;;;6149793;23;20021;-48
2022/07/14 08:35:23;;;;;;;;;;;;;;;;;;6150710;23;20083;-46
2022/07/14 08:37:51;;;;;;;6.57;1.48;;;;;;;;;;6150423;23;19916;-64
2022/07/14 08:40:20;;;;;;;6.07;1.08;;;;;;;;;;6149457;23;20033;-59
2022/07/14 08:42:49;;;;;;;7.30;1.48;;;;;;;;;;6149079;23;20025;-59
2022/07/14 08:45:18;;;;;;;5.20;1.20;;;;;;;;;;6150502;23;20025;-59
2022/07/14 08:47:46;;;;;;;16.35;2.08;;;;;;;;;;6149584;23;20380;-58
2022/07/14 08:50:13;;;;;;;;;;;;;;;;;;6147927;23;20029;-59
2022/07/14 08:52:44;;;;;;;7.72;1.30;;;;;;;;;;6148692;23;19916;-59
2022/07/14 08:55:12;;;;;;;6.60;1.38;;;;;;;;;;6149920;23;20026;-64
2022/07/14 08:57:40;;;;;;;7.28;1.73;;;;;;;;;;6150115;23;20022;-66
2022/07/14 09:00:12;;;;;;;4.35;1.23;;;;;;;;;;6150044;23;20857;-59
2022/07/14 09:02:41;;;;;;;3.92;1.13;;;;;;;;;;6148211;23;20021;-59
2022/07/14 09:05:28;;;;;;;5.32;1.17;;;;;;;;;;6149617;23;20025;-59
2022/07/14 09:07:56;;;;;;;;;;;;;;;;;;6150070;23;20085;-59
2022/07/14 09:10:25;;;;;;;4.80;1.25;;;;;;;;;;6149569;23;19963;-60
2022/07/14 09:13:09;;;;;;;5.55;1.25;;;;;;;;;;6148771;23;20099;-60
2022/07/14 09:15:45;;;;;;;5.53;1.17;;;;;;;;;;6150054;23;20076;-60
2022/07/14 09:18:20;;;;;;;6.68;1.38;;;;;;;;;;6150369;23;20530;-66
2022/07/14 09:20:48;;;;;;;5.03;1.02;;;;;;;;;;6149442;23;20026;-67
2022/07/14 09:23:15;;;;;;;4.20;1.17;;;;;;;;;;6150650;23;20026;-67
2022/07/14 09:25:43;;;;;;;6.28;1.20;;;;;;;;;;6150221;23;20032;-66
2022/07/14 09:28:10;;;;;;;3.97;1.10;;;;;;;;;;6149759;23;20025;-66
2022/07/14 09:30:37;;;;;;;5.32;1.23;;;;;;;;;;6147486;23;20048;-67
2022/07/14 09:33:05;;;;;;;5.80;1.73;;;;;;;;;;6147902;23;20076;-66
2022/07/14 09:35:38;;;;;;;8.00;1.25;;;;;;;;;;6149289;23;20411;-58
2022/07/14 09:38:15;;;;;;;3.22;1.00;;;;;;;;;;6147672;23;20088;-64
2022/07/14 09:40:43;;;;;;;3.80;1.00;;;;;;;;;;6147457;23;20026;-65
2022/07/14 09:43:12;;;;;;;4.25;1.58;;;;;;;;;;6150510;23;20510;-64
2022/07/14 09:45:42;;;;;;;6.47;1.50;;;;;;;;;;6148754;23;20030;-65
2022/07/14 09:48:18;;;;;;;4.32;1.13;;;;;;;;;;6149883;23;20044;-65
2022/07/14 09:50:48;;;;;;;8.15;1.50;;;;;;;;;;6148470;23;20545;-65
2022/07/14 09:53:16;;;;;;;7.53;1.42;;;;;;;;;;6149688;23;20029;-47
2022/07/14 09:55:46;;;;;;;9.15;1.58;;;;;;;;;;6149359;23;20431;-66
2022/07/14 09:58:13;;;;;;;5.13;1.20;;;;;;;;;;6149145;23;20085;-59
2022/07/14 10:00:41;;;;;;;;;;;;;;;;;;6149782;23;20025;-59
2022/07/14 10:03:08;;;;;;;7.10;1.30;;;;;;;;;;6149467;23;19920;-59
2022/07/14 10:05:36;;;;;;;;;;;;;;;;;;6149813;23;20104;-59
2022/07/14 10:08:04;;;;;;;6.28;1.52;;;;;;;;;;6148890;23;20145;-59
2022/07/14 10:10:35;;;;;;;8.20;1.23;;;;;;;;;;6149114;23;20033;-59
2022/07/14 10:13:05;;;;;;;4.65;1.20;;;;;;;;;;6150261;23;20017;-47
2022/07/14 10:15:38;;;;;;;4.97;1.30;;;;;;;;;;6149441;23;20474;-65
2022/07/14 10:18:05;;;;;;;;;;;;;;;;;;6150943;23;20057;-65
2022/07/14 10:20:33;;;;;;;13.18;1.77;;;;;;;;;;6146986;23;20546;-63
2022/07/14 10:23:01;;;;;;;6.78;1.48;;;;;;;;;;6149085;23;20092;-65
2022/07/14 10:25:28;;;;;;;9.77;1.15;;;;;;;;;;6148980;23;20022;-65
2022/07/14 10:27:56;;;;;;;2.35;0.88;;;;;;;;;;6148151;23;20029;-64
2022/07/14 10:30:43;;;;;;;2.58;1.02;;;;;;;;;;6148683;23;20026;-59
2022/07/14 10:33:16;;;;;;;2.58;1.10;;;;;;;;;;6150894;23;20088;-59
2022/07/14 10:35:43;;;;;;;11.48;1.40;;;;;;;;;;6147697;23;20068;-59
2022/07/14 10:38:11;;;;;;;;;;;;;;;;;;6150806;23;20026;-59
2022/07/14 10:40:58;;;;;;;6.22;1.25;;;;;;;;;;6149738;23;19948;-59
2022/07/14 10:43:28;;;;;;;5.50;1.45;;;;;;;;;;6134507;23;20036;-59
2022/07/14 10:45:56;;;;;;;7.50;1.73;;;;;;;;;;6149566;23;20033;-59
2022/07/14 10:48:30;;;;;;;13.25;2.03;;;;;;;;;;6152729;23;20029;-59
2022/07/14 10:51:16;;;;;;;4.97;1.23;;;;;;;;;;6148806;23;20026;-59
2022/07/14 10:54:05;;;;;;;6.82;1.70;;;;;;;;;;6152243;23;20022;-59
2022/07/14 10:57:09;;;;;;;4.28;1.33;;;;;;;;;;6150467;23;20358;-59
2022/07/14 10:59:37;;;;;;;8.75;1.70;;;;;;;;;;6151278;23;20025;-59
2022/07/14 11:02:14;;;;;;;4.95;1.48;;;;;;;;;;6151607;23;20473;-59
2022/07/14 11:05:01;;;;;;;5.72;1.40;;;;;;;;;;6150341;23;20033;-59
2022/07/14 11:07:47;;;;;;;4.82;1.15;;;;;;;;;;6151288;23;20376;-58
2022/07/14 11:10:35;;;;;;;4.70;1.30;;;;;;;;;;6150460;23;20033;-64
2022/07/14 11:13:05;;;;;;;6.38;1.52;;;;;;;;;;6152054;23;20092;-58
2022/07/14 11:15:42;;;;;;;7.43;1.75;;;;;;;;;;6148454;23;20105;-59
2022/07/14 11:18:24;;;;;;;14.25;2.17;;;;;;;;;;6150870;23;20104;-59
2022/07/14 11:20:59;;;;;;;6.03;1.52;;;;;;;;;;6150903;23;20050;-59
2022/07/14 11:23:30;;;;;;;6.38;1.60;;;;;;;;;;6151151;23;20632;-58
2022/07/14 11:25:58;;;;;;;9.20;1.90;;;;;;;;;;6150170;23;20032;-59
2022/07/14 11:28:28;;;;;;;;;;;;;;;;;;6151819;23;20026;-60
2022/07/14 11:31:10;;;;;;;11.05;2.25;;;;;;;;;;6149961;23;19921;-59
2022/07/14 11:36:26;;;;;;;7.13;1.60;;;;;;;;;;6148564;23;20025;-58
2022/07/14 11:39:16;;;;;;;6.43;1.50;;;;;;;;;;6148996;23;20080;-58
2022/07/14 11:41:48;;;;;;;6.00;1.83;;;;;;;;;;6150600;23;20028;-59
2022/07/14 11:44:40;;;;;;;5.78;1.42;;;;;;;;;;6150003;23;20337;-59
2022/07/14 11:47:07;;;;;;;6.88;1.92;;;;;;;;;;6148780;23;20025;-46
2022/07/14 11:49:35;;;;;;;4.07;1.67;;;;;;;;;;6151225;23;20088;-47
2022/07/14 11:52:04;;;;;;;7.93;2.35;;;;;;;;;;6150327;23;20025;-67
2022/07/14 11:54:32;;;;;;;6.22;1.40;;;;;;;;;;6150628;23;20045;-67
2022/07/14 11:57:00;;;;;;;;;;;;;;;;;;6151080;23;20092;-67
2022/07/14 11:59:28;;;;;;;10.27;1.57;;;;;;;;;;6148662;23;19940;-67
2022/07/14 12:02:06;;;;;;;4.85;1.55;;;;;;;;;;6150260;23;20018;-67
2022/07/14 12:04:33;;;;;;;;;;;;;;;;;;6150673;23;20513;-66
2022/07/14 12:07:01;;;;;;;4.45;1.17;;;;;;;;;;6150711;23;19920;-48
2022/07/14 12:09:35;;;;;;;4.43;1.33;;;;;;;;;;6146247;23;20025;-60
2022/07/14 12:12:12;;;;;;;6.15;1.33;;;;;;;;;;6148750;23;20100;-59
2022/07/14 12:14:40;;;;;;;;;;;;;;;;;;6151699;23;20096;-60
2022/07/14 12:17:07;;;;;;;5.68;1.40;;;;;;;;;;6151391;23;19920;-60
2022/07/14 12:19:34;;;;;;;;;;;;;;;;;;6150789;23;20083;-59
2022/07/14 12:22:03;;;;;;;5.38;1.50;;;;;;;;;;6148522;23;19920;-60
2022/07/14 12:24:31;;;;;;;6.35;1.70;;;;;;;;;;6148680;23;20026;-59
2022/07/14 12:26:59;;;;;;;7.20;1.70;;;;;;;;;;6147251;23;20030;-59
2022/07/14 12:29:26;;;;;;;12.35;1.90;;;;;;;;;;6150463;23;20399;-64
2022/07/14 12:32:00;;;;;;;10.68;1.98;;;;;;;;;;6149154;23;20040;-65
2022/07/14 12:34:28;;;;;;;4.43;1.67;;;;;;;;;;6149911;23;20616;-65
2022/07/14 12:36:57;;;;;;;7.25;1.80;;;;;;;;;;6148129;23;20492;-65
2022/07/14 12:39:25;;;;;;;7.03;1.70;;;;;;;;;;6149550;23;20092;-65
2022/07/14 12:41:52;;;;;;;11.07;2.15;;;;;;;;;;6149637;23;20057;-61
2022/07/14 12:44:19;;;;;;;7.65;2.00;;;;;;;;;;6151159;23;20021;-58
2022/07/14 12:46:47;;;;;;;6.70;1.85;;;;;;;;;;6150504;23;20029;-64
2022/07/14 12:49:22;;;;;;;10.48;1.92;;;;;;;;;;6150951;23;20481;-47
2022/07/14 12:51:54;;;;;;;10.43;1.95;;;;;;;;;;6149382;23;20076;-47
2022/07/14 12:54:34;;;;;;;6.53;2.00;;;;;;;;;;6150634;23;20064;-45
2022/07/14 12:57:22;;;;;;;8.85;2.00;;;;;;;;;;6147629;23;20057;-51
2022/07/14 12:59:50;;;;;;;7.63;1.88;;;;;;;;;;6150098;23;20017;-47
2022/07/14 13:02:22;;;;;;;15.40;2.25;;;;;;;;;;6148857;23;20479;-51
2022/07/14 13:04:51;;;;;;;8.23;2.20;;;;;;;;;;6147604;23;20096;-60
2022/07/14 13:07:18;;;;;;;9.65;1.83;;;;;;;;;;6149992;23;20053;-59
2022/07/14 13:09:45;;;;;;;;;;;;;;;;;;6150122;23;20032;-59
2022/07/14 13:12:26;;;;;;;5.75;1.52;;;;;;;;;;6148896;23;19975;-59
2022/07/14 13:15:01;;;;;;;5.28;1.70;;;;;;;;;;6148277;23;20029;-59
2022/07/14 13:17:46;;;;;;;8.07;1.58;;;;;;;;;;6149355;23;20056;-59
2022/07/14 13:20:33;;;;;;;7.63;1.88;;;;;;;;;;6150101;23;20025;-59
2022/07/14 13:23:00;;;;;;;8.95;1.55;;;;;;;;;;6148637;23;20022;-63
2022/07/14 13:25:27;;;;;;;7.53;1.65;;;;;;;;;;6150005;23;20025;-58
2022/07/14 13:27:54;;;;;;;6.50;1.70;;;;;;;;;;6147970;23;20021;-57
2022/07/14 13:30:22;;;;;;;7.22;1.48;;;;;;;;;;6148800;23;20029;-57
2022/07/14 13:32:49;;;;;;;8.10;1.77;;;;;;;;;;6148914;23;20072;-57
2022/07/14 13:35:20;;;;;;;7.13;1.80;;;;;;;;;;6148390;23;20025;-57
2022/07/14 13:37:47;;;;;;;8.20;2.05;;;;;;;;;;6149818;23;20029;-58
2022/07/14 13:40:14;;;;;;;11.75;2.40;;;;;;;;;;6150291;23;20025;-58
2022/07/14 13:42:41;;;;;;;9.65;1.73;;;;;;;;;;6147998;23;20021;-60
2022/07/14 13:45:09;;;;;;;6.47;1.60;;;;;;;;;;6150081;23;20029;-45
2022/07/14 13:47:36;;;;;;;;;;;;;;;;;;6149816;23;20026;-50
2022/07/14 13:52:50;;;;;;;7.43;1.70;;;;;;;;;;6149366;23;20037;-47
2022/07/14 13:55:17;;;;;;;6.70;1.80;;;;;;;;;;6150452;23;20030;-47
2022/07/14 13:57:44;;;;;;;7.32;1.95;;;;;;;;;;6147827;23;20057;-48
2022/07/14 14:00:12;;;;;;;9.07;1.77;;;;;;;;;;6150281;23;20029;-49
2022/07/14 14:05:25;;;;;;;7.88;2.00;;;;;;;;;;6150770;23;20076;-58
2022/07/14 14:07:53;;;;;;;12.02;2.15;;;;;;;;;;6148930;23;20362;-59
2022/07/14 14:10:20;;;;;;;9.65;2.38;;;;;;;;;;6149996;23;20036;-59
2022/07/14 14:12:47;;;;;;;7.97;1.70;;;;;;;;;;6149633;23;20029;-59
2022/07/14 14:15:14;;;;;;;;;;;;;;;;;;6149814;23;20107;-58
2022/07/14 14:17:41;;;;;;;6.43;1.50;;;;;;;;;;6149652;23;20263;-59
2022/07/14 14:20:09;;;;;;;5.47;1.70;;;;;;;;;;6148307;23;20076;-65
2022/07/14 14:22:36;;;;;;;6.93;1.75;;;;;;;;;;6150504;23;20355;-58
2022/07/14 14:25:03;;;;;;;4.00;1.25;;;;;;;;;;6150223;23;20025;-58
2022/07/14 14:27:31;;;;;;;8.13;2.10;;;;;;;;;;6151908;23;20025;-58
2022/07/14 14:29:58;;;;;;;6.10;1.60;;;;;;;;;;6152062;23;20030;-58
2022/07/14 14:32:25;;;;;;;5.72;1.63;;;;;;;;;;6151805;23;20085;-58
2022/07/14 14:34:52;;;;;;;6.35;1.40;;;;;;;;;;6150006;23;20029;-58
2022/07/14 14:37:20;;;;;;;;;;;;;;;;;;6151611;23;20023;-57
2022/07/14 14:39:47;;;;;;;8.25;1.77;;;;;;;;;;6149949;23;19983;-58
2022/07/14 14:42:16;;;;;;;3.85;1.23;;;;;;;;;;6151371;23;20026;-48
2022/07/14 14:44:43;;;;;;;5.05;1.60;;;;;;;;;;6151791;23;20100;-48
2022/07/14 14:47:10;;;;;;;5.43;1.67;;;;;;;;;;6151148;23;20021;-46
2022/07/14 14:49:52;;;;;;;;;;;;;;;;;;6151615;23;20570;-46
2022/07/14 14:52:20;;;;;;;4.90;1.25;;;;;;;;;;6150007;23;19916;-47
2022/07/14 14:54:47;;;;;;;5.18;1.42;;;;;;;;;;6150728;23;20022;-48
2022/07/14 14:57:15;;;;;;;4.72;1.80;;;;;;;;;;6151396;23;20025;-46
2022/07/14 14:59:42;;;;;;;;;;;;;;;;;;6151284;23;20018;-60
2022/07/14 15:02:09;;;;;;;7.50;1.58;;;;;;;;;;6149146;23;19939;-65
2022/07/14 15:04:36;;;;;;;6.88;1.55;;;;;;;;;;6151236;23;20029;-65
2022/07/14 15:07:04;;;;;;;9.25;2.25;;;;;;;;;;6151287;23;20072;-66
2022/07/14 15:09:31;;;;;;;9.82;1.92;;;;;;;;;;6151502;23;20021;-65
2022/07/14 15:11:59;;;;;;;6.65;1.50;;;;;;;;;;6149086;23;20075;-65
2022/07/14 15:14:26;;;;;;;4.75;1.42;;;;;;;;;;6149539;23;20463;-64